sensor_id;sensor_type;location;lat;lon;timestamp;temperature;humidity
37678;DHT22;23517;50.390;8.616;2024-01-30T00:00:06;0.60;1.00
37678;DHT22;23517;50.390;8.616;2024-01-30T00:02:34;0.60;1.00
37678;DHT22;23517;50.390;8.616;2024-01-30T00:05:01;0.60;1.00
37678;DHT22;23517;50.390;8.616;2024-01-30T00:07:30;0.60;1.00
37678;DHT22;23517;50.390;8.616;2024-01-30T00:09:56;0.60;1.00
37678;DHT22;23517;50.390;8.616;2024-01-30T00:12:23;0.70;1.00
37678;DHT22;23517;50.390;8.616;2024-01-30T00:14:50;0.60;1.00
37678;DHT22;23517;50.390;8.616;2024-01-30T00:17:20;0.60;1.00
37678;DHT22;23517;50.390;8.616;2024-01-30T00:19:47;0.60;1.00
37678;DHT22;23517;50.390;8.616;2024-01-30T00:22:14;0.50;1.00
37678;DHT22;23517;50.390;8.616;2024-01-30T00:24:41;0.50;1.00
37678;DHT22;23517;50.390;8.616;2024-01-30T00:27:08;0.50;1.00
37678;DHT22;23517;50.390;8.616;2024-01-30T00:29:35;0.40;1.00
37678;DHT22;23517;50.390;8.616;2024-01-30T00:32:01;0.40;1.00
37678;DHT22;23517;50.390;8.616;2024-01-30T00:34:28;0.40;1.00
37678;DHT22;23517;50.390;8.616;2024-01-30T00:36:55;0.30;1.00
37678;DHT22;23517;50.390;8.616;2024-01-30T00:39:22;0.40;1.00
37678;DHT22;23517;50.390;8.616;2024-01-30T00:41:49;0.30;1.00
37678;DHT22;23517;50.390;8.616;2024-01-30T00:44:16;0.30;1.00
37678;DHT22;23517;50.390;8.616;2024-01-30T00:46:43;0.30;1.00
37678;DHT22;23517;50.390;8.616;2024-01-30T00:49:10;0.30;1.00
37678;DHT22;23517;50.390;8.616;2024-01-30T00:51:37;0.30;1.00
37678;DHT22;23517;50.390;8.616;2024-01-30T00:54:04;0.20;1.00
37678;DHT22;23517;50.390;8.616;2024-01-30T00:56:30;0.20;1.00
37678;DHT22;23517;50.390;8.616;2024-01-30T00:58:57;0.20;1.00
37678;DHT22;23517;50.390;8.616;2024-01-30T01:01:24;0.30;1.00
37678;DHT22;23517;50.390;8.616;2024-01-30T01:03:51;0.30;1.00
37678;DHT22;23517;50.390;8.616;2024-01-30T01:06:18;0.20;1.00
37678;DHT22;23517;50.390;8.616;2024-01-30T01:08:44;0.30;1.00
37678;DHT22;23517;50.390;8.616;2024-01-30T01:11:11;0.30;1.00
37678;DHT22;23517;50.390;8.616;2024-01-30T01:13:38;0.20;1.00
37678;DHT22;23517;50.390;8.616;2024-01-30T01:16:04;0.20;1.00
37678;DHT22;23517;50.390;8.616;2024-01-30T01:18:31;0.20;1.00
37678;DHT22;23517;50.390;8.616;2024-01-30T01:20:58;0.20;1.00
37678;DHT22;23517;50.390;8.616;2024-01-30T01:23:25;0.20;1.00
37678;DHT22;23517;50.390;8.616;2024-01-30T01:25:52;0.20;1.00
37678;DHT22;23517;50.390;8.616;2024-01-30T01:28:18;0.20;1.00
37678;DHT22;23517;50.390;8.616;2024-01-30T01:30:45;0.20;1.00
37678;DHT22;23517;50.390;8.616;2024-01-30T01:33:12;0.10;1.00
37678;DHT22;23517;50.390;8.616;2024-01-30T01:35:41;0.10;1.00
37678;DHT22;23517;50.390;8.616;2024-01-30T01:38:07;0.00;1.00
37678;DHT22;23517;50.390;8.616;2024-01-30T01:40:34;0.00;1.00
37678;DHT22;23517;50.390;8.616;2024-01-30T01:43:03;0.00;1.00
37678;DHT22;23517;50.390;8.616;2024-01-30T01:45:30;0.00;1.00
37678;DHT22;23517;50.390;8.616;2024-01-30T01:47:57;0.00;1.00
37678;DHT22;23517;50.390;8.616;2024-01-30T01:50:24;0.00;1.00
37678;DHT22;23517;50.390;8.616;2024-01-30T01:52:52;-0.10;1.00
37678;DHT22;23517;50.390;8.616;2024-01-30T01:55:21;-0.10;1.00
37678;DHT22;23517;50.390;8.616;2024-01-30T01:57:49;0.00;1.00
37678;DHT22;23517;50.390;8.616;2024-01-30T02:00:16;-0.10;1.00
37678;DHT22;23517;50.390;8.616;2024-01-30T02:02:46;-0.10;1.00
37678;DHT22;23517;50.390;8.616;2024-01-30T02:05:14;-0.10;1.00
37678;DHT22;23517;50.390;8.616;2024-01-30T02:07:43;-0.10;1.00
37678;DHT22;23517;50.390;8.616;2024-01-30T02:10:10;-0.20;1.00
37678;DHT22;23517;50.390;8.616;2024-01-30T02:12:37;-0.10;1.00
37678;DHT22;23517;50.390;8.616;2024-01-30T02:15:04;-0.10;1.00
37678;DHT22;23517;50.390;8.616;2024-01-30T02:17:31;0.00;1.00
37678;DHT22;23517;50.390;8.616;2024-01-30T02:19:59;-0.10;1.00
37678;DHT22;23517;50.390;8.616;2024-01-30T02:22:26;-0.10;1.00
37678;DHT22;23517;50.390;8.616;2024-01-30T02:24:53;-0.20;1.00
37678;DHT22;23517;50.390;8.616;2024-01-30T02:27:20;-0.10;1.00
37678;DHT22;23517;50.390;8.616;2024-01-30T02:29:46;-0.20;1.00
37678;DHT22;23517;50.390;8.616;2024-01-30T02:32:13;-0.20;1.00
37678;DHT22;23517;50.390;8.616;2024-01-30T02:34:40;-0.20;1.00
37678;DHT22;23517;50.390;8.616;2024-01-30T02:37:07;-0.20;1.00
37678;DHT22;23517;50.390;8.616;2024-01-30T02:39:33;-0.10;1.00
37678;DHT22;23517;50.390;8.616;2024-01-30T02:42:00;-0.10;1.00
37678;DHT22;23517;50.390;8.616;2024-01-30T02:44:27;-0.10;1.00
37678;DHT22;23517;50.390;8.616;2024-01-30T02:46:55;-0.10;1.00
37678;DHT22;23517;50.390;8.616;2024-01-30T02:49:25;-0.10;1.00
37678;DHT22;23517;50.390;8.616;2024-01-30T02:51:54;-0.10;1.00
37678;DHT22;23517;50.390;8.616;2024-01-30T02:54:21;-0.10;1.00
37678;DHT22;23517;50.390;8.616;2024-01-30T02:56:48;-0.20;1.00
37678;DHT22;23517;50.390;8.616;2024-01-30T02:59:14;-0.20;1.00
37678;DHT22;23517;50.390;8.616;2024-01-30T03:01:45;-0.20;1.00
37678;DHT22;23517;50.390;8.616;2024-01-30T03:04:12;-0.30;1.00
37678;DHT22;23517;50.390;8.616;2024-01-30T03:06:45;-0.30;1.00
37678;DHT22;23517;50.390;8.616;2024-01-30T03:09:15;-0.30;1.00
37678;DHT22;23517;50.390;8.616;2024-01-30T03:11:42;-0.20;1.00
37678;DHT22;23517;50.390;8.616;2024-01-30T03:14:09;-0.30;1.00
37678;DHT22;23517;50.390;8.616;2024-01-30T03:16:37;-0.30;1.00
37678;DHT22;23517;50.390;8.616;2024-01-30T03:19:06;-0.30;1.00
37678;DHT22;23517;50.390;8.616;2024-01-30T03:21:35;-0.40;1.00
37678;DHT22;23517;50.390;8.616;2024-01-30T03:24:02;-0.40;1.00
37678;DHT22;23517;50.390;8.616;2024-01-30T03:26:29;-0.40;1.00
37678;DHT22;23517;50.390;8.616;2024-01-30T03:28:55;-0.40;1.00
37678;DHT22;23517;50.390;8.616;2024-01-30T03:31:22;-0.40;1.00
37678;DHT22;23517;50.390;8.616;2024-01-30T03:33:49;-0.40;1.00
37678;DHT22;23517;50.390;8.616;2024-01-30T03:36:16;-0.50;1.00
37678;DHT22;23517;50.390;8.616;2024-01-30T03:38:42;-0.50;1.00
37678;DHT22;23517;50.390;8.616;2024-01-30T03:41:09;-0.40;1.00
37678;DHT22;23517;50.390;8.616;2024-01-30T03:43:39;-0.50;1.00
37678;DHT22;23517;50.390;8.616;2024-01-30T03:46:07;-0.40;1.00
37678;DHT22;23517;50.390;8.616;2024-01-30T03:48:33;-0.50;1.00
37678;DHT22;23517;50.390;8.616;2024-01-30T03:51:05;-0.50;1.00
37678;DHT22;23517;50.390;8.616;2024-01-30T03:53:31;-0.50;1.00
37678;DHT22;23517;50.390;8.616;2024-01-30T03:55:58;-0.50;1.00
37678;DHT22;23517;50.390;8.616;2024-01-30T03:58:25;-0.50;1.00
37678;DHT22;23517;50.390;8.616;2024-01-30T04:00:52;-0.50;1.00
37678;DHT22;23517;50.390;8.616;2024-01-30T04:03:18;-0.50;1.00
37678;DHT22;23517;50.390;8.616;2024-01-30T04:05:45;-0.50;1.00
37678;DHT22;23517;50.390;8.616;2024-01-30T04:08:12;-0.50;1.00
37678;DHT22;23517;50.390;8.616;2024-01-30T04:10:39;-0.50;1.00
37678;DHT22;23517;50.390;8.616;2024-01-30T04:13:05;-0.50;1.00
37678;DHT22;23517;50.390;8.616;2024-01-30T04:15:35;-0.50;1.00
37678;DHT22;23517;50.390;8.616;2024-01-30T04:18:02;-0.50;1.00
37678;DHT22;23517;50.390;8.616;2024-01-30T04:20:29;-0.40;1.00
37678;DHT22;23517;50.390;8.616;2024-01-30T04:22:56;-0.50;1.00
37678;DHT22;23517;50.390;8.616;2024-01-30T04:25:25;-0.50;1.00
37678;DHT22;23517;50.390;8.616;2024-01-30T04:27:53;-0.50;1.00
37678;DHT22;23517;50.390;8.616;2024-01-30T04:30:19;-0.50;1.00
37678;DHT22;23517;50.390;8.616;2024-01-30T04:32:46;-0.50;1.00
37678;DHT22;23517;50.390;8.616;2024-01-30T04:35:16;-0.40;1.00
37678;DHT22;23517;50.390;8.616;2024-01-30T04:37:43;-0.50;1.00
37678;DHT22;23517;50.390;8.616;2024-01-30T04:40:10;-0.50;1.00
37678;DHT22;23517;50.390;8.616;2024-01-30T04:42:37;-0.60;1.00
37678;DHT22;23517;50.390;8.616;2024-01-30T04:45:04;-0.60;1.00
37678;DHT22;23517;50.390;8.616;2024-01-30T04:47:32;-0.50;1.00
37678;DHT22;23517;50.390;8.616;2024-01-30T04:49:58;-0.60;1.00
37678;DHT22;23517;50.390;8.616;2024-01-30T04:52:25;-0.60;1.00
37678;DHT22;23517;50.390;8.616;2024-01-30T04:54:52;-0.60;1.00
37678;DHT22;23517;50.390;8.616;2024-01-30T04:57:19;-0.50;1.00
37678;DHT22;23517;50.390;8.616;2024-01-30T04:59:47;-0.50;1.00
37678;DHT22;23517;50.390;8.616;2024-01-30T05:02:15;-0.60;1.00
37678;DHT22;23517;50.390;8.616;2024-01-30T05:04:41;-0.60;1.00
37678;DHT22;23517;50.390;8.616;2024-01-30T05:07:08;-0.60;1.00
37678;DHT22;23517;50.390;8.616;2024-01-30T05:09:35;-0.70;1.00
37678;DHT22;23517;50.390;8.616;2024-01-30T05:12:02;-0.70;1.00
37678;DHT22;23517;50.390;8.616;2024-01-30T05:14:29;-0.60;1.00
37678;DHT22;23517;50.390;8.616;2024-01-30T05:16:56;-0.70;1.00
37678;DHT22;23517;50.390;8.616;2024-01-30T05:19:23;-0.60;1.00
37678;DHT22;23517;50.390;8.616;2024-01-30T05:21:50;-0.60;1.00
37678;DHT22;23517;50.390;8.616;2024-01-30T05:24:17;-0.60;1.00
37678;DHT22;23517;50.390;8.616;2024-01-30T05:26:46;-0.60;1.00
37678;DHT22;23517;50.390;8.616;2024-01-30T05:29:15;-0.60;1.00
37678;DHT22;23517;50.390;8.616;2024-01-30T05:31:42;-0.70;1.00
37678;DHT22;23517;50.390;8.616;2024-01-30T05:34:08;-0.70;1.00
37678;DHT22;23517;50.390;8.616;2024-01-30T05:36:35;-0.60;1.00
37678;DHT22;23517;50.390;8.616;2024-01-30T05:39:02;-0.60;1.00
37678;DHT22;23517;50.390;8.616;2024-01-30T05:41:31;-0.60;1.00
37678;DHT22;23517;50.390;8.616;2024-01-30T05:43:58;-0.60;1.00
37678;DHT22;23517;50.390;8.616;2024-01-30T05:46:25;-0.50;1.00
37678;DHT22;23517;50.390;8.616;2024-01-30T05:48:52;-0.60;1.00
37678;DHT22;23517;50.390;8.616;2024-01-30T05:51:19;-0.60;1.00
37678;DHT22;23517;50.390;8.616;2024-01-30T05:53:45;-0.50;1.00
37678;DHT22;23517;50.390;8.616;2024-01-30T05:56:12;-0.50;1.00
37678;DHT22;23517;50.390;8.616;2024-01-30T05:58:39;-0.50;1.00
37678;DHT22;23517;50.390;8.616;2024-01-30T06:01:08;-0.50;1.00
37678;DHT22;23517;50.390;8.616;2024-01-30T06:03:35;-0.60;1.00
37678;DHT22;23517;50.390;8.616;2024-01-30T06:06:02;-0.60;1.00
37678;DHT22;23517;50.390;8.616;2024-01-30T06:08:29;-0.60;1.00
37678;DHT22;23517;50.390;8.616;2024-01-30T06:10:56;-0.70;1.00
37678;DHT22;23517;50.390;8.616;2024-01-30T06:13:22;-0.80;1.00
37678;DHT22;23517;50.390;8.616;2024-01-30T06:15:49;-0.80;1.00
37678;DHT22;23517;50.390;8.616;2024-01-30T06:18:16;-0.70;1.00
37678;DHT22;23517;50.390;8.616;2024-01-30T06:20:42;-0.70;1.00
37678;DHT22;23517;50.390;8.616;2024-01-30T06:23:09;-0.40;1.00
37678;DHT22;23517;50.390;8.616;2024-01-30T06:25:36;-0.60;1.00
37678;DHT22;23517;50.390;8.616;2024-01-30T06:28:03;-0.60;1.00
37678;DHT22;23517;50.390;8.616;2024-01-30T06:30:30;-0.70;1.00
37678;DHT22;23517;50.390;8.616;2024-01-30T06:32:59;-0.60;1.00
37678;DHT22;23517;50.390;8.616;2024-01-30T06:35:29;-0.70;1.00
37678;DHT22;23517;50.390;8.616;2024-01-30T06:37:56;-0.70;1.00
37678;DHT22;23517;50.390;8.616;2024-01-30T06:40:23;-0.60;1.00
37678;DHT22;23517;50.390;8.616;2024-01-30T06:42:50;-0.60;1.00
37678;DHT22;23517;50.390;8.616;2024-01-30T06:45:17;-0.50;1.00
37678;DHT22;23517;50.390;8.616;2024-01-30T06:47:43;-0.50;1.00
37678;DHT22;23517;50.390;8.616;2024-01-30T06:50:10;-0.50;1.00
37678;DHT22;23517;50.390;8.616;2024-01-30T06:52:37;-0.50;1.00
37678;DHT22;23517;50.390;8.616;2024-01-30T06:55:04;-0.40;1.00
37678;DHT22;23517;50.390;8.616;2024-01-30T06:57:31;-0.40;1.00
37678;DHT22;23517;50.390;8.616;2024-01-30T06:59:57;-0.40;1.00
37678;DHT22;23517;50.390;8.616;2024-01-30T07:02:24;-0.40;1.00
37678;DHT22;23517;50.390;8.616;2024-01-30T07:04:51;-0.30;1.00
37678;DHT22;23517;50.390;8.616;2024-01-30T07:07:17;-0.40;1.00
37678;DHT22;23517;50.390;8.616;2024-01-30T07:09:44;-0.40;1.00
37678;DHT22;23517;50.390;8.616;2024-01-30T07:12:11;-0.40;1.00
37678;DHT22;23517;50.390;8.616;2024-01-30T07:14:38;-0.40;1.00
37678;DHT22;23517;50.390;8.616;2024-01-30T07:17:05;-0.40;1.00
37678;DHT22;23517;50.390;8.616;2024-01-30T07:19:32;-0.40;1.00
37678;DHT22;23517;50.390;8.616;2024-01-30T07:21:59;-0.30;1.00
37678;DHT22;23517;50.390;8.616;2024-01-30T07:24:26;-0.40;1.00
37678;DHT22;23517;50.390;8.616;2024-01-30T07:26:53;-0.30;1.00
37678;DHT22;23517;50.390;8.616;2024-01-30T07:29:20;-0.30;1.00
37678;DHT22;23517;50.390;8.616;2024-01-30T07:31:46;-0.30;1.00
37678;DHT22;23517;50.390;8.616;2024-01-30T07:34:13;-0.20;1.00
37678;DHT22;23517;50.390;8.616;2024-01-30T07:36:40;-0.20;1.00
37678;DHT22;23517;50.390;8.616;2024-01-30T07:39:07;-0.10;1.00
37678;DHT22;23517;50.390;8.616;2024-01-30T07:41:33;0.00;1.00
37678;DHT22;23517;50.390;8.616;2024-01-30T07:44:02;0.10;1.00
37678;DHT22;23517;50.390;8.616;2024-01-30T07:46:29;0.20;1.00
37678;DHT22;23517;50.390;8.616;2024-01-30T07:48:59;0.30;1.00
37678;DHT22;23517;50.390;8.616;2024-01-30T07:51:26;0.40;1.00
37678;DHT22;23517;50.390;8.616;2024-01-30T07:53:54;0.50;1.00
37678;DHT22;23517;50.390;8.616;2024-01-30T07:56:21;0.60;1.00
37678;DHT22;23517;50.390;8.616;2024-01-30T07:58:48;0.60;1.00
37678;DHT22;23517;50.390;8.616;2024-01-30T08:01:15;0.70;1.00
37678;DHT22;23517;50.390;8.616;2024-01-30T08:03:42;0.90;1.00
37678;DHT22;23517;50.390;8.616;2024-01-30T08:06:09;1.00;1.00
37678;DHT22;23517;50.390;8.616;2024-01-30T08:08:36;1.10;1.00
37678;DHT22;23517;50.390;8.616;2024-01-30T08:11:04;1.20;1.00
37678;DHT22;23517;50.390;8.616;2024-01-30T08:13:31;1.30;1.00
37678;DHT22;23517;50.390;8.616;2024-01-30T08:15:57;1.40;1.00
37678;DHT22;23517;50.390;8.616;2024-01-30T08:18:24;1.50;1.00
37678;DHT22;23517;50.390;8.616;2024-01-30T08:20:51;1.60;1.00
37678;DHT22;23517;50.390;8.616;2024-01-30T08:23:18;1.80;1.00
37678;DHT22;23517;50.390;8.616;2024-01-30T08:25:44;1.80;1.00
37678;DHT22;23517;50.390;8.616;2024-01-30T08:28:11;1.90;1.00
37678;DHT22;23517;50.390;8.616;2024-01-30T08:30:38;2.00;1.00
37678;DHT22;23517;50.390;8.616;2024-01-30T08:33:06;2.10;1.00
37678;DHT22;23517;50.390;8.616;2024-01-30T08:35:33;2.10;1.00
37678;DHT22;23517;50.390;8.616;2024-01-30T08:38:00;2.10;1.00
37678;DHT22;23517;50.390;8.616;2024-01-30T08:40:27;2.20;1.00
37678;DHT22;23517;50.390;8.616;2024-01-30T08:42:55;2.50;1.00
37678;DHT22;23517;50.390;8.616;2024-01-30T08:45:22;2.60;1.00
37678;DHT22;23517;50.390;8.616;2024-01-30T08:47:49;2.80;99.90
37678;DHT22;23517;50.390;8.616;2024-01-30T08:50:16;2.80;99.90
37678;DHT22;23517;50.390;8.616;2024-01-30T08:52:42;2.90;99.90
37678;DHT22;23517;50.390;8.616;2024-01-30T08:55:12;2.90;99.90
37678;DHT22;23517;50.390;8.616;2024-01-30T08:57:39;3.00;99.90
37678;DHT22;23517;50.390;8.616;2024-01-30T09:00:06;3.00;99.90
37678;DHT22;23517;50.390;8.616;2024-01-30T09:02:35;3.10;99.90
37678;DHT22;23517;50.390;8.616;2024-01-30T09:05:02;3.10;99.90
37678;DHT22;23517;50.390;8.616;2024-01-30T09:07:29;3.20;99.90
37678;DHT22;23517;50.390;8.616;2024-01-30T09:09:56;3.30;99.90
37678;DHT22;23517;50.390;8.616;2024-01-30T09:12:23;3.30;99.90
37678;DHT22;23517;50.390;8.616;2024-01-30T09:14:50;3.40;99.90
37678;DHT22;23517;50.390;8.616;2024-01-30T09:17:16;3.30;99.90
37678;DHT22;23517;50.390;8.616;2024-01-30T09:19:43;3.20;99.90
37678;DHT22;23517;50.390;8.616;2024-01-30T09:22:10;3.30;99.90
37678;DHT22;23517;50.390;8.616;2024-01-30T09:24:37;3.40;99.90
37678;DHT22;23517;50.390;8.616;2024-01-30T09:27:04;3.40;99.90
37678;DHT22;23517;50.390;8.616;2024-01-30T09:29:31;3.50;99.90
37678;DHT22;23517;50.390;8.616;2024-01-30T09:31:59;3.50;99.90
37678;DHT22;23517;50.390;8.616;2024-01-30T09:34:26;3.70;1.00
37678;DHT22;23517;50.390;8.616;2024-01-30T09:36:53;3.70;1.00
37678;DHT22;23517;50.390;8.616;2024-01-30T09:39:20;3.70;1.00
37678;DHT22;23517;50.390;8.616;2024-01-30T09:42:40;3.70;1.00
37678;DHT22;23517;50.390;8.616;2024-01-30T09:44:50;3.70;99.90
37678;DHT22;23517;50.390;8.616;2024-01-30T09:47:18;3.60;1.00
37678;DHT22;23517;50.390;8.616;2024-01-30T09:49:45;3.70;1.00
37678;DHT22;23517;50.390;8.616;2024-01-30T09:52:12;3.70;1.00
37678;DHT22;23517;50.390;8.616;2024-01-30T09:54:40;3.80;1.00
37678;DHT22;23517;50.390;8.616;2024-01-30T09:57:08;3.90;1.00
37678;DHT22;23517;50.390;8.616;2024-01-30T09:59:35;4.00;1.00
37678;DHT22;23517;50.390;8.616;2024-01-30T10:02:01;4.20;1.00
37678;DHT22;23517;50.390;8.616;2024-01-30T10:04:32;4.30;1.00
37678;DHT22;23517;50.390;8.616;2024-01-30T10:07:02;4.40;1.00
37678;DHT22;23517;50.390;8.616;2024-01-30T10:09:32;4.60;1.00
37678;DHT22;23517;50.390;8.616;2024-01-30T10:12:00;4.70;16.10
37678;DHT22;23517;50.390;8.616;2024-01-30T10:14:27;4.90;99.90
37678;DHT22;23517;50.390;8.616;2024-01-30T10:16:55;5.00;1.00
37678;DHT22;23517;50.390;8.616;2024-01-30T10:19:22;4.90;1.00
37678;DHT22;23517;50.390;8.616;2024-01-30T10:21:49;5.00;1.00
37678;DHT22;23517;50.390;8.616;2024-01-30T10:24:15;5.00;1.00
37678;DHT22;23517;50.390;8.616;2024-01-30T10:26:44;5.10;99.90
37678;DHT22;23517;50.390;8.616;2024-01-30T10:29:10;5.10;1.00
37678;DHT22;23517;50.390;8.616;2024-01-30T10:31:37;5.20;1.00
37678;DHT22;23517;50.390;8.616;2024-01-30T10:34:04;5.10;1.00
37678;DHT22;23517;50.390;8.616;2024-01-30T10:36:46;5.10;99.90
37678;DHT22;23517;50.390;8.616;2024-01-30T10:39:17;5.20;1.00
37678;DHT22;23517;50.390;8.616;2024-01-30T10:41:44;5.20;1.00
37678;DHT22;23517;50.390;8.616;2024-01-30T10:44:11;5.20;99.90
37678;DHT22;23517;50.390;8.616;2024-01-30T10:46:42;5.10;99.90
37678;DHT22;23517;50.390;8.616;2024-01-30T10:49:09;5.00;99.90
37678;DHT22;23517;50.390;8.616;2024-01-30T10:51:38;5.10;99.90
37678;DHT22;23517;50.390;8.616;2024-01-30T10:54:06;5.30;1.00
37678;DHT22;23517;50.390;8.616;2024-01-30T10:56:34;5.30;1.00
37678;DHT22;23517;50.390;8.616;2024-01-30T10:59:01;5.40;99.90
37678;DHT22;23517;50.390;8.616;2024-01-30T11:01:28;5.40;99.90
37678;DHT22;23517;50.390;8.616;2024-01-30T11:03:56;5.30;24.20
37678;DHT22;23517;50.390;8.616;2024-01-30T11:06:25;5.30;99.90
37678;DHT22;23517;50.390;8.616;2024-01-30T11:09:05;5.30;99.90
37678;DHT22;23517;50.390;8.616;2024-01-30T11:11:59;5.40;1.00
37678;DHT22;23517;50.390;8.616;2024-01-30T11:14:30;5.50;1.00
37678;DHT22;23517;50.390;8.616;2024-01-30T11:16:58;5.60;1.00
37678;DHT22;23517;50.390;8.616;2024-01-30T11:19:26;5.60;54.90
37678;DHT22;23517;50.390;8.616;2024-01-30T11:21:54;5.60;99.90
37678;DHT22;23517;50.390;8.616;2024-01-30T11:24:24;5.70;1.00
37678;DHT22;23517;50.390;8.616;2024-01-30T11:27:01;5.70;1.00
37678;DHT22;23517;50.390;8.616;2024-01-30T11:29:29;5.60;51.60
37678;DHT22;23517;50.390;8.616;2024-01-30T11:31:57;5.70;1.00
37678;DHT22;23517;50.390;8.616;2024-01-30T11:34:25;5.70;29.00
37678;DHT22;23517;50.390;8.616;2024-01-30T11:36:56;5.80;1.00
37678;DHT22;23517;50.390;8.616;2024-01-30T11:39:26;5.90;1.00
37678;DHT22;23517;50.390;8.616;2024-01-30T11:41:53;5.90;99.90
37678;DHT22;23517;50.390;8.616;2024-01-30T11:44:21;5.90;1.00
37678;DHT22;23517;50.390;8.616;2024-01-30T11:46:51;5.90;1.00
37678;DHT22;23517;50.390;8.616;2024-01-30T11:49:18;6.00;1.00
37678;DHT22;23517;50.390;8.616;2024-01-30T11:51:46;6.00;1.00
37678;DHT22;23517;50.390;8.616;2024-01-30T11:54:15;6.00;1.00
37678;DHT22;23517;50.390;8.616;2024-01-30T11:56:43;6.20;1.00
37678;DHT22;23517;50.390;8.616;2024-01-30T11:59:09;6.30;99.90
37678;DHT22;23517;50.390;8.616;2024-01-30T12:01:36;6.40;99.90
37678;DHT22;23517;50.390;8.616;2024-01-30T12:04:04;6.50;99.90
37678;DHT22;23517;50.390;8.616;2024-01-30T12:06:35;6.60;99.90
37678;DHT22;23517;50.390;8.616;2024-01-30T12:09:03;6.50;99.90
37678;DHT22;23517;50.390;8.616;2024-01-30T12:11:48;6.50;1.00
37678;DHT22;23517;50.390;8.616;2024-01-30T12:14:19;6.60;1.00
37678;DHT22;23517;50.390;8.616;2024-01-30T12:16:49;6.60;1.00
37678;DHT22;23517;50.390;8.616;2024-01-30T12:19:26;6.60;1.00
37678;DHT22;23517;50.390;8.616;2024-01-30T12:21:55;6.70;1.00
37678;DHT22;23517;50.390;8.616;2024-01-30T12:24:23;6.70;99.90
37678;DHT22;23517;50.390;8.616;2024-01-30T12:26:51;6.70;99.90
37678;DHT22;23517;50.390;8.616;2024-01-30T12:29:20;6.70;1.70
37678;DHT22;23517;50.390;8.616;2024-01-30T12:31:47;6.60;1.00
37678;DHT22;23517;50.390;8.616;2024-01-30T12:34:14;6.60;99.90
37678;DHT22;23517;50.390;8.616;2024-01-30T12:36:43;6.70;99.90
37678;DHT22;23517;50.390;8.616;2024-01-30T12:39:14;6.80;99.90
37678;DHT22;23517;50.390;8.616;2024-01-30T12:41:41;6.90;99.90
37678;DHT22;23517;50.390;8.616;2024-01-30T12:44:08;6.80;1.00
37678;DHT22;23517;50.390;8.616;2024-01-30T12:46:35;6.80;1.00
37678;DHT22;23517;50.390;8.616;2024-01-30T12:49:02;6.80;1.00
37678;DHT22;23517;50.390;8.616;2024-01-30T12:51:29;6.80;99.90
37678;DHT22;23517;50.390;8.616;2024-01-30T12:53:55;6.80;1.00
37678;DHT22;23517;50.390;8.616;2024-01-30T12:56:22;6.70;99.90
37678;DHT22;23517;50.390;8.616;2024-01-30T12:58:49;6.70;99.90
37678;DHT22;23517;50.390;8.616;2024-01-30T13:01:20;6.60;99.90
37678;DHT22;23517;50.390;8.616;2024-01-30T13:03:47;6.60;1.00
37678;DHT22;23517;50.390;8.616;2024-01-30T13:06:13;6.60;99.90
37678;DHT22;23517;50.390;8.616;2024-01-30T13:08:40;6.50;1.00
37678;DHT22;23517;50.390;8.616;2024-01-30T13:11:07;6.50;1.00
37678;DHT22;23517;50.390;8.616;2024-01-30T13:13:43;6.50;1.00
37678;DHT22;23517;50.390;8.616;2024-01-30T13:16:10;6.50;1.00
37678;DHT22;23517;50.390;8.616;2024-01-30T13:18:37;6.50;1.00
37678;DHT22;23517;50.390;8.616;2024-01-30T13:21:04;6.50;1.00
37678;DHT22;23517;50.390;8.616;2024-01-30T13:23:31;6.50;1.00
37678;DHT22;23517;50.390;8.616;2024-01-30T13:25:57;6.50;1.00
37678;DHT22;23517;50.390;8.616;2024-01-30T13:28:25;6.50;1.00
37678;DHT22;23517;50.390;8.616;2024-01-30T13:30:52;6.60;1.00
37678;DHT22;23517;50.390;8.616;2024-01-30T13:33:19;6.60;99.90
37678;DHT22;23517;50.390;8.616;2024-01-30T13:35:45;6.50;1.00
37678;DHT22;23517;50.390;8.616;2024-01-30T13:38:12;6.60;1.00
37678;DHT22;23517;50.390;8.616;2024-01-30T13:40:40;6.60;99.90
37678;DHT22;23517;50.390;8.616;2024-01-30T13:43:07;6.60;99.90
37678;DHT22;23517;50.390;8.616;2024-01-30T13:45:33;6.60;1.00
37678;DHT22;23517;50.390;8.616;2024-01-30T13:48:00;6.50;1.00
37678;DHT22;23517;50.390;8.616;2024-01-30T13:50:27;6.50;1.00
37678;DHT22;23517;50.390;8.616;2024-01-30T13:52:54;6.60;1.00
37678;DHT22;23517;50.390;8.616;2024-01-30T13:55:21;6.60;1.00
37678;DHT22;23517;50.390;8.616;2024-01-30T13:57:48;6.60;1.00
37678;DHT22;23517;50.390;8.616;2024-01-30T14:00:17;6.60;1.00
37678;DHT22;23517;50.390;8.616;2024-01-30T14:02:44;6.60;1.00
37678;DHT22;23517;50.390;8.616;2024-01-30T14:05:11;6.60;1.00
37678;DHT22;23517;50.390;8.616;2024-01-30T14:07:38;6.60;1.00
37678;DHT22;23517;50.390;8.616;2024-01-30T14:10:10;6.60;1.00
37678;DHT22;23517;50.390;8.616;2024-01-30T14:12:43;6.60;1.00
37678;DHT22;23517;50.390;8.616;2024-01-30T14:15:11;6.60;1.00
37678;DHT22;23517;50.390;8.616;2024-01-30T14:17:53;6.60;1.00
37678;DHT22;23517;50.390;8.616;2024-01-30T14:20:20;6.60;1.00
37678;DHT22;23517;50.390;8.616;2024-01-30T14:22:47;6.60;1.00
37678;DHT22;23517;50.390;8.616;2024-01-30T14:25:14;6.60;99.90
37678;DHT22;23517;50.390;8.616;2024-01-30T14:27:40;6.60;88.70
37678;DHT22;23517;50.390;8.616;2024-01-30T14:30:10;6.60;99.90
37678;DHT22;23517;50.390;8.616;2024-01-30T14:32:38;6.60;52.50
37678;DHT22;23517;50.390;8.616;2024-01-30T14:35:05;6.60;99.90
37678;DHT22;23517;50.390;8.616;2024-01-30T14:37:32;6.60;99.90
37678;DHT22;23517;50.390;8.616;2024-01-30T14:39:59;6.60;99.90
37678;DHT22;23517;50.390;8.616;2024-01-30T14:42:26;6.50;99.90
37678;DHT22;23517;50.390;8.616;2024-01-30T14:44:53;6.50;99.90
37678;DHT22;23517;50.390;8.616;2024-01-30T14:47:20;6.50;99.90
37678;DHT22;23517;50.390;8.616;2024-01-30T14:49:47;6.40;99.90
37678;DHT22;23517;50.390;8.616;2024-01-30T14:52:13;6.30;1.00
37678;DHT22;23517;50.390;8.616;2024-01-30T14:54:40;6.30;1.00
37678;DHT22;23517;50.390;8.616;2024-01-30T14:57:07;6.30;18.50
37678;DHT22;23517;50.390;8.616;2024-01-30T14:59:35;6.30;93.90
37678;DHT22;23517;50.390;8.616;2024-01-30T15:02:02;6.30;99.90
37678;DHT22;23517;50.390;8.616;2024-01-30T15:04:29;6.20;99.90
37678;DHT22;23517;50.390;8.616;2024-01-30T15:06:56;6.20;99.90
37678;DHT22;23517;50.390;8.616;2024-01-30T15:09:23;6.20;1.00
37678;DHT22;23517;50.390;8.616;2024-01-30T15:11:53;6.10;1.00
37678;DHT22;23517;50.390;8.616;2024-01-30T15:14:19;6.20;99.90
37678;DHT22;23517;50.390;8.616;2024-01-30T15:16:46;6.10;1.00
37678;DHT22;23517;50.390;8.616;2024-01-30T15:19:13;6.10;80.90
37678;DHT22;23517;50.390;8.616;2024-01-30T15:21:40;6.10;99.90
37678;DHT22;23517;50.390;8.616;2024-01-30T15:24:07;6.10;99.90
37678;DHT22;23517;50.390;8.616;2024-01-30T15:26:34;6.10;99.90
37678;DHT22;23517;50.390;8.616;2024-01-30T15:29:00;6.00;1.00
37678;DHT22;23517;50.390;8.616;2024-01-30T15:31:27;6.00;1.00
37678;DHT22;23517;50.390;8.616;2024-01-30T15:33:54;6.00;1.00
37678;DHT22;23517;50.390;8.616;2024-01-30T15:36:20;5.90;99.90
37678;DHT22;23517;50.390;8.616;2024-01-30T15:38:47;5.90;99.90
37678;DHT22;23517;50.390;8.616;2024-01-30T15:41:14;5.90;1.00
37678;DHT22;23517;50.390;8.616;2024-01-30T15:43:40;5.80;1.00
37678;DHT22;23517;50.390;8.616;2024-01-30T15:46:07;5.80;1.00
37678;DHT22;23517;50.390;8.616;2024-01-30T15:48:34;5.80;1.00
37678;DHT22;23517;50.390;8.616;2024-01-30T15:51:01;5.70;1.00
37678;DHT22;23517;50.390;8.616;2024-01-30T15:53:27;5.70;48.50